sensor_id;sensor_type;location;lat;lon;timestamp;P1;durP1;ratioP1;P2;durP2;ratioP2
24455;SDS011;12628;50.860;5.714;2022-12-29T00:00:44;0.30;;;0.30;;
24455;SDS011;12628;50.860;5.714;2022-12-29T00:03:12;2.17;;;0.52;;
24455;SDS011;12628;50.860;5.714;2022-12-29T00:05:39;0.82;;;0.40;;
24455;SDS011;12628;50.860;5.714;2022-12-29T00:08:06;0.50;;;0.38;;
24455;SDS011;12628;50.860;5.714;2022-12-29T00:10:35;1.98;;;0.50;;
24455;SDS011;12628;50.860;5.714;2022-12-29T00:13:02;0.73;;;0.20;;
24455;SDS011;12628;50.860;5.714;2022-12-29T00:15:46;1.40;;;0.50;;
24455;SDS011;12628;50.860;5.714;2022-12-29T00:18:14;0.30;;;0.20;;
24455;SDS011;12628;50.860;5.714;2022-12-29T00:20:41;0.73;;;0.50;;
24455;SDS011;12628;50.860;5.714;2022-12-29T00:23:25;1.15;;;0.50;;
24455;SDS011;12628;50.860;5.714;2022-12-29T00:26:14;0.47;;;0.30;;
24455;SDS011;12628;50.860;5.714;2022-12-29T00:29:00;0.30;;;0.30;;
24455;SDS011;12628;50.860;5.714;2022-12-29T00:31:44;1.52;;;0.40;;
24455;SDS011;12628;50.860;5.714;2022-12-29T00:34:29;0.57;;;0.30;;
24455;SDS011;12628;50.860;5.714;2022-12-29T00:37:13;0.60;;;0.38;;
24455;SDS011;12628;50.860;5.714;2022-12-29T00:39:40;0.60;;;0.30;;
24455;SDS011;12628;50.860;5.714;2022-12-29T00:42:26;0.52;;;0.20;;
24455;SDS011;12628;50.860;5.714;2022-12-29T00:45:11;0.50;;;0.40;;
24455;SDS011;12628;50.860;5.714;2022-12-29T00:47:38;0.63;;;0.20;;
24455;SDS011;12628;50.860;5.714;2022-12-29T00:50:05;1.17;;;0.30;;
24455;SDS011;12628;50.860;5.714;2022-12-29T00:52:32;1.40;;;0.40;;
24455;SDS011;12628;50.860;5.714;2022-12-29T00:54:59;2.60;;;0.35;;
24455;SDS011;12628;50.860;5.714;2022-12-29T00:57:28;2.20;;;0.40;;
24455;SDS011;12628;50.860;5.714;2022-12-29T00:59:55;0.90;;;0.50;;
24455;SDS011;12628;50.860;5.714;2022-12-29T01:02:22;0.73;;;0.47;;
24455;SDS011;12628;50.860;5.714;2022-12-29T01:04:50;0.80;;;0.38;;
24455;SDS011;12628;50.860;5.714;2022-12-29T01:07:17;1.75;;;0.40;;
24455;SDS011;12628;50.860;5.714;2022-12-29T01:09:44;3.58;;;0.70;;
24455;SDS011;12628;50.860;5.714;2022-12-29T01:12:30;2.58;;;0.47;;
24455;SDS011;12628;50.860;5.714;2022-12-29T01:17:38;1.25;;;0.50;;
24455;SDS011;12628;50.860;5.714;2022-12-29T01:20:06;0.95;;;0.47;;
24455;SDS011;12628;50.860;5.714;2022-12-29T01:22:34;2.90;;;0.70;;
24455;SDS011;12628;50.860;5.714;2022-12-29T01:25:01;1.55;;;0.63;;
24455;SDS011;12628;50.860;5.714;2022-12-29T01:27:30;1.17;;;0.40;;
24455;SDS011;12628;50.860;5.714;2022-12-29T01:29:57;1.92;;;0.57;;
24455;SDS011;12628;50.860;5.714;2022-12-29T01:32:24;3.08;;;0.60;;
24455;SDS011;12628;50.860;5.714;2022-12-29T01:34:52;1.95;;;0.80;;
24455;SDS011;12628;50.860;5.714;2022-12-29T01:37:19;1.67;;;0.77;;
24455;SDS011;12628;50.860;5.714;2022-12-29T01:39:46;2.22;;;0.70;;
24455;SDS011;12628;50.860;5.714;2022-12-29T01:42:14;2.03;;;0.60;;
24455;SDS011;12628;50.860;5.714;2022-12-29T01:44:49;1.88;;;1.00;;
24455;SDS011;12628;50.860;5.714;2022-12-29T01:47:21;0.75;;;0.50;;
24455;SDS011;12628;50.860;5.714;2022-12-29T01:49:56;1.65;;;0.60;;
24455;SDS011;12628;50.860;5.714;2022-12-29T01:52:27;1.40;;;0.43;;
24455;SDS011;12628;50.860;5.714;2022-12-29T01:54:58;2.13;;;0.75;;
24455;SDS011;12628;50.860;5.714;2022-12-29T01:57:29;1.60;;;0.70;;
24455;SDS011;12628;50.860;5.714;2022-12-29T02:00:03;6.43;;;0.90;;
24455;SDS011;12628;50.860;5.714;2022-12-29T02:02:33;1.95;;;0.50;;
24455;SDS011;12628;50.860;5.714;2022-12-29T02:05:02;1.73;;;0.80;;
24455;SDS011;12628;50.860;5.714;2022-12-29T02:07:35;1.92;;;0.70;;
24455;SDS011;12628;50.860;5.714;2022-12-29T02:10:04;2.08;;;0.60;;
24455;SDS011;12628;50.860;5.714;2022-12-29T02:12:32;2.53;;;0.55;;
24455;SDS011;12628;50.860;5.714;2022-12-29T02:15:01;1.88;;;0.60;;
24455;SDS011;12628;50.860;5.714;2022-12-29T02:17:34;2.03;;;0.57;;
24455;SDS011;12628;50.860;5.714;2022-12-29T02:20:19;3.63;;;0.70;;
24455;SDS011;12628;50.860;5.714;2022-12-29T02:23:12;1.33;;;0.47;;
24455;SDS011;12628;50.860;5.714;2022-12-29T02:29:18;1.65;;;0.60;;
24455;SDS011;12628;50.860;5.714;2022-12-29T02:32:20;1.48;;;0.40;;
24455;SDS011;12628;50.860;5.714;2022-12-29T02:34:57;1.55;;;0.50;;
24455;SDS011;12628;50.860;5.714;2022-12-29T02:37:33;1.33;;;0.40;;
24455;SDS011;12628;50.860;5.714;2022-12-29T02:40:10;1.52;;;0.77;;
24455;SDS011;12628;50.860;5.714;2022-12-29T02:42:46;2.25;;;0.55;;
24455;SDS011;12628;50.860;5.714;2022-12-29T02:45:18;0.68;;;0.35;;
24455;SDS011;12628;50.860;5.714;2022-12-29T02:47:51;1.92;;;0.40;;
24455;SDS011;12628;50.860;5.714;2022-12-29T02:50:25;2.05;;;0.40;;
24455;SDS011;12628;50.860;5.714;2022-12-29T02:52:58;1.27;;;0.43;;
24455;SDS011;12628;50.860;5.714;2022-12-29T02:55:28;1.00;;;0.38;;
24455;SDS011;12628;50.860;5.714;2022-12-29T02:58:12;1.35;;;0.60;;
24455;SDS011;12628;50.860;5.714;2022-12-29T03:00:45;1.52;;;0.40;;
24455;SDS011;12628;50.860;5.714;2022-12-29T03:03:26;0.40;;;0.30;;
24455;SDS011;12628;50.860;5.714;2022-12-29T03:06:08;0.85;;;0.35;;
24455;SDS011;12628;50.860;5.714;2022-12-29T03:08:49;1.67;;;0.73;;
24455;SDS011;12628;50.860;5.714;2022-12-29T03:11:26;0.10;;;0.10;;
24455;SDS011;12628;50.860;5.714;2022-12-29T03:14:17;1.30;;;0.40;;
24455;SDS011;12628;50.860;5.714;2022-12-29T03:17:14;0.70;;;0.20;;
24455;SDS011;12628;50.860;5.714;2022-12-29T03:19:52;3.10;;;0.60;;
24455;SDS011;12628;50.860;5.714;2022-12-29T03:22:26;0.32;;;0.30;;
24455;SDS011;12628;50.860;5.714;2022-12-29T03:24:58;0.40;;;0.20;;
24455;SDS011;12628;50.860;5.714;2022-12-29T03:27:29;0.85;;;0.30;;
24455;SDS011;12628;50.860;5.714;2022-12-29T03:30:00;0.73;;;0.40;;
24455;SDS011;12628;50.860;5.714;2022-12-29T03:32:31;1.77;;;0.43;;
24455;SDS011;12628;50.860;5.714;2022-12-29T03:35:03;0.93;;;0.50;;
24455;SDS011;12628;50.860;5.714;2022-12-29T03:40:02;3.50;;;0.55;;
24455;SDS011;12628;50.860;5.714;2022-12-29T03:42:31;3.30;;;0.35;;
24455;SDS011;12628;50.860;5.714;2022-12-29T03:45:01;2.20;;;0.40;;
24455;SDS011;12628;50.860;5.714;2022-12-29T03:47:32;1.83;;;0.40;;
24455;SDS011;12628;50.860;5.714;2022-12-29T03:50:00;2.67;;;0.57;;
24455;SDS011;12628;50.860;5.714;2022-12-29T03:52:28;2.20;;;0.43;;
24455;SDS011;12628;50.860;5.714;2022-12-29T03:54:55;1.75;;;0.60;;
24455;SDS011;12628;50.860;5.714;2022-12-29T03:57:23;1.15;;;0.52;;
24455;SDS011;12628;50.860;5.714;2022-12-29T03:59:50;3.95;;;0.40;;
24455;SDS011;12628;50.860;5.714;2022-12-29T04:02:17;0.90;;;0.40;;
24455;SDS011;12628;50.860;5.714;2022-12-29T04:04:45;1.13;;;0.50;;
24455;SDS011;12628;50.860;5.714;2022-12-29T04:07:12;2.47;;;0.40;;
24455;SDS011;12628;50.860;5.714;2022-12-29T04:09:41;2.08;;;0.40;;
24455;SDS011;12628;50.860;5.714;2022-12-29T04:12:08;1.17;;;0.22;;
24455;SDS011;12628;50.860;5.714;2022-12-29T04:14:35;1.23;;;0.28;;
24455;SDS011;12628;50.860;5.714;2022-12-29T04:17:02;0.75;;;0.47;;
24455;SDS011;12628;50.860;5.714;2022-12-29T04:19:29;0.90;;;0.38;;
24455;SDS011;12628;50.860;5.714;2022-12-29T04:21:57;3.42;;;0.60;;
24455;SDS011;12628;50.860;5.714;2022-12-29T04:24:23;3.85;;;0.70;;
24455;SDS011;12628;50.860;5.714;2022-12-29T04:26:52;2.42;;;0.80;;
24455;SDS011;12628;50.860;5.714;2022-12-29T04:29:19;2.97;;;0.55;;
24455;SDS011;12628;50.860;5.714;2022-12-29T04:31:46;2.53;;;0.50;;
24455;SDS011;12628;50.860;5.714;2022-12-29T04:34:17;2.42;;;0.68;;
24455;SDS011;12628;50.860;5.714;2022-12-29T04:36:44;1.77;;;0.40;;
24455;SDS011;12628;50.860;5.714;2022-12-29T04:39:11;1.65;;;0.55;;
24455;SDS011;12628;50.860;5.714;2022-12-29T04:41:38;2.22;;;0.40;;
24455;SDS011;12628;50.860;5.714;2022-12-29T04:44:07;2.17;;;0.43;;
24455;SDS011;12628;50.860;5.714;2022-12-29T04:46:34;3.03;;;0.57;;
24455;SDS011;12628;50.860;5.714;2022-12-29T04:49:01;3.05;;;0.50;;
24455;SDS011;12628;50.860;5.714;2022-12-29T04:51:33;1.45;;;0.50;;
24455;SDS011;12628;50.860;5.714;2022-12-29T04:54:01;1.98;;;0.63;;
24455;SDS011;12628;50.860;5.714;2022-12-29T04:56:28;3.60;;;0.47;;
24455;SDS011;12628;50.860;5.714;2022-12-29T04:58:55;1.38;;;0.40;;
24455;SDS011;12628;50.860;5.714;2022-12-29T05:01:24;2.35;;;0.82;;
24455;SDS011;12628;50.860;5.714;2022-12-29T05:03:51;1.35;;;0.50;;
24455;SDS011;12628;50.860;5.714;2022-12-29T05:06:19;2.28;;;0.50;;
24455;SDS011;12628;50.860;5.714;2022-12-29T05:08:46;2.38;;;0.98;;
24455;SDS011;12628;50.860;5.714;2022-12-29T05:11:13;2.78;;;0.65;;
24455;SDS011;12628;50.860;5.714;2022-12-29T05:13:41;2.65;;;0.50;;
24455;SDS011;12628;50.860;5.714;2022-12-29T05:16:11;3.47;;;0.67;;
24455;SDS011;12628;50.860;5.714;2022-12-29T05:18:39;2.72;;;0.55;;
24455;SDS011;12628;50.860;5.714;2022-12-29T05:21:07;2.10;;;0.70;;
24455;SDS011;12628;50.860;5.714;2022-12-29T05:23:34;2.83;;;0.63;;
24455;SDS011;12628;50.860;5.714;2022-12-29T05:26:01;3.55;;;0.70;;
24455;SDS011;12628;50.860;5.714;2022-12-29T05:28:28;2.97;;;0.68;;
24455;SDS011;12628;50.860;5.714;2022-12-29T05:30:56;3.22;;;0.80;;
24455;SDS011;12628;50.860;5.714;2022-12-29T05:33:23;1.88;;;0.50;;
24455;SDS011;12628;50.860;5.714;2022-12-29T05:35:52;2.45;;;0.60;;
24455;SDS011;12628;50.860;5.714;2022-12-29T05:38:19;1.88;;;0.70;;
24455;SDS011;12628;50.860;5.714;2022-12-29T05:40:46;2.80;;;0.60;;
24455;SDS011;12628;50.860;5.714;2022-12-29T05:43:13;1.85;;;0.47;;
24455;SDS011;12628;50.860;5.714;2022-12-29T05:45:41;1.30;;;0.55;;
24455;SDS011;12628;50.860;5.714;2022-12-29T05:48:08;3.10;;;0.60;;
24455;SDS011;12628;50.860;5.714;2022-12-29T05:50:35;3.88;;;0.40;;
24455;SDS011;12628;50.860;5.714;2022-12-29T05:53:04;4.45;;;0.90;;
24455;SDS011;12628;50.860;5.714;2022-12-29T05:55:31;4.53;;;0.77;;
24455;SDS011;12628;50.860;5.714;2022-12-29T05:57:58;1.90;;;0.70;;
24455;SDS011;12628;50.860;5.714;2022-12-29T06:00:26;3.67;;;0.75;;
24455;SDS011;12628;50.860;5.714;2022-12-29T06:02:53;3.95;;;0.70;;
24455;SDS011;12628;50.860;5.714;2022-12-29T06:05:20;3.17;;;0.50;;
24455;SDS011;12628;50.860;5.714;2022-12-29T06:07:47;1.10;;;0.40;;
24455;SDS011;12628;50.860;5.714;2022-12-29T06:10:16;2.85;;;0.93;;
24455;SDS011;12628;50.860;5.714;2022-12-29T06:12:44;5.13;;;0.80;;
24455;SDS011;12628;50.860;5.714;2022-12-29T06:15:12;3.92;;;0.80;;
24455;SDS011;12628;50.860;5.714;2022-12-29T06:17:39;4.20;;;0.80;;
24455;SDS011;12628;50.860;5.714;2022-12-29T06:20:07;0.80;;;0.43;;
24455;SDS011;12628;50.860;5.714;2022-12-29T06:22:36;2.58;;;0.73;;
24455;SDS011;12628;50.860;5.714;2022-12-29T06:25:04;3.97;;;0.63;;
24455;SDS011;12628;50.860;5.714;2022-12-29T06:27:33;5.32;;;0.80;;
24455;SDS011;12628;50.860;5.714;2022-12-29T06:30:00;4.78;;;0.60;;
24455;SDS011;12628;50.860;5.714;2022-12-29T06:32:28;4.13;;;1.10;;
24455;SDS011;12628;50.860;5.714;2022-12-29T06:34:55;5.60;;;0.70;;
24455;SDS011;12628;50.860;5.714;2022-12-29T06:37:23;3.28;;;0.88;;
24455;SDS011;12628;50.860;5.714;2022-12-29T06:39:50;3.58;;;0.52;;
24455;SDS011;12628;50.860;5.714;2022-12-29T06:42:17;6.32;;;0.93;;
24455;SDS011;12628;50.860;5.714;2022-12-29T06:44:46;4.50;;;0.85;;
24455;SDS011;12628;50.860;5.714;2022-12-29T06:47:14;4.85;;;0.70;;
24455;SDS011;12628;50.860;5.714;2022-12-29T06:49:41;3.55;;;0.73;;
24455;SDS011;12628;50.860;5.714;2022-12-29T06:52:08;5.18;;;0.70;;
24455;SDS011;12628;50.860;5.714;2022-12-29T06:54:35;3.25;;;0.88;;
24455;SDS011;12628;50.860;5.714;2022-12-29T06:57:03;4.53;;;0.90;;
24455;SDS011;12628;50.860;5.714;2022-12-29T06:59:30;7.68;;;1.02;;
24455;SDS011;12628;50.860;5.714;2022-12-29T07:01:59;2.92;;;0.70;;
24455;SDS011;12628;50.860;5.714;2022-12-29T07:04:27;5.43;;;0.80;;
24455;SDS011;12628;50.860;5.714;2022-12-29T07:06:54;5.20;;;0.77;;
24455;SDS011;12628;50.860;5.714;2022-12-29T07:09:22;5.80;;;0.70;;
24455;SDS011;12628;50.860;5.714;2022-12-29T07:11:49;4.68;;;0.90;;
24455;SDS011;12628;50.860;5.714;2022-12-29T07:14:16;4.35;;;1.13;;
24455;SDS011;12628;50.860;5.714;2022-12-29T07:16:44;9.02;;;1.10;;
24455;SDS011;12628;50.860;5.714;2022-12-29T07:19:12;5.10;;;0.80;;
24455;SDS011;12628;50.860;5.714;2022-12-29T07:21:40;8.68;;;1.15;;
24455;SDS011;12628;50.860;5.714;2022-12-29T07:24:07;5.38;;;1.27;;
24455;SDS011;12628;50.860;5.714;2022-12-29T07:26:35;5.65;;;1.00;;
24455;SDS011;12628;50.860;5.714;2022-12-29T07:29:03;3.90;;;1.00;;
24455;SDS011;12628;50.860;5.714;2022-12-29T07:31:30;3.38;;;0.55;;
24455;SDS011;12628;50.860;5.714;2022-12-29T07:33:58;6.00;;;1.10;;
24455;SDS011;12628;50.860;5.714;2022-12-29T07:36:26;10.32;;;1.52;;
24455;SDS011;12628;50.860;5.714;2022-12-29T07:38:54;6.00;;;1.10;;
24455;SDS011;12628;50.860;5.714;2022-12-29T07:41:21;4.30;;;1.27;;
24455;SDS011;12628;50.860;5.714;2022-12-29T07:43:48;5.28;;;1.35;;
24455;SDS011;12628;50.860;5.714;2022-12-29T07:46:15;6.20;;;1.63;;
24455;SDS011;12628;50.860;5.714;2022-12-29T07:48:43;8.38;;;1.33;;
24455;SDS011;12628;50.860;5.714;2022-12-29T07:51:10;4.72;;;1.10;;
24455;SDS011;12628;50.860;5.714;2022-12-29T07:53:39;5.90;;;1.00;;
24455;SDS011;12628;50.860;5.714;2022-12-29T07:56:06;4.78;;;1.08;;
24455;SDS011;12628;50.860;5.714;2022-12-29T07:58:33;7.97;;;1.17;;
24455;SDS011;12628;50.860;5.714;2022-12-29T08:01:00;5.22;;;1.55;;
24455;SDS011;12628;50.860;5.714;2022-12-29T08:03:28;9.55;;;1.40;;
24455;SDS011;12628;50.860;5.714;2022-12-29T08:05:56;5.50;;;0.85;;
24455;SDS011;12628;50.860;5.714;2022-12-29T08:08:23;6.75;;;1.00;;
24455;SDS011;12628;50.860;5.714;2022-12-29T08:10:52;6.20;;;0.98;;
24455;SDS011;12628;50.860;5.714;2022-12-29T08:13:19;7.18;;;1.33;;
24455;SDS011;12628;50.860;5.714;2022-12-29T08:15:47;8.18;;;1.20;;
24455;SDS011;12628;50.860;5.714;2022-12-29T08:18:14;9.05;;;1.30;;
24455;SDS011;12628;50.860;5.714;2022-12-29T08:20:41;9.57;;;1.38;;
24455;SDS011;12628;50.860;5.714;2022-12-29T08:23:09;6.60;;;1.08;;
24455;SDS011;12628;50.860;5.714;2022-12-29T08:25:36;3.80;;;0.70;;
24455;SDS011;12628;50.860;5.714;2022-12-29T08:28:05;7.93;;;1.00;;
24455;SDS011;12628;50.860;5.714;2022-12-29T08:30:32;8.00;;;1.23;;
24455;SDS011;12628;50.860;5.714;2022-12-29T08:32:59;4.75;;;1.02;;
24455;SDS011;12628;50.860;5.714;2022-12-29T08:35:26;4.65;;;1.02;;
24455;SDS011;12628;50.860;5.714;2022-12-29T08:37:54;8.00;;;1.10;;
24455;SDS011;12628;50.860;5.714;2022-12-29T08:40:21;4.93;;;1.00;;
24455;SDS011;12628;50.860;5.714;2022-12-29T08:42:49;6.50;;;1.13;;
24455;SDS011;12628;50.860;5.714;2022-12-29T08:45:18;5.43;;;1.17;;
24455;SDS011;12628;50.860;5.714;2022-12-29T08:47:45;7.75;;;1.58;;
24455;SDS011;12628;50.860;5.714;2022-12-29T08:50:12;6.60;;;1.13;;
24455;SDS011;12628;50.860;5.714;2022-12-29T08:52:40;7.00;;;1.20;;
24455;SDS011;12628;50.860;5.714;2022-12-29T08:55:07;9.75;;;1.27;;
24455;SDS011;12628;50.860;5.714;2022-12-29T08:57:35;5.57;;;1.00;;
24455;SDS011;12628;50.860;5.714;2022-12-29T09:00:03;4.82;;;0.80;;
24455;SDS011;12628;50.860;5.714;2022-12-29T09:02:32;4.50;;;0.95;;
24455;SDS011;12628;50.860;5.714;2022-12-29T09:04:59;4.70;;;0.80;;
24455;SDS011;12628;50.860;5.714;2022-12-29T09:07:27;5.72;;;1.25;;
24455;SDS011;12628;50.860;5.714;2022-12-29T09:09:54;9.18;;;1.60;;
24455;SDS011;12628;50.860;5.714;2022-12-29T09:12:21;8.07;;;1.60;;
24455;SDS011;12628;50.860;5.714;2022-12-29T09:14:49;3.92;;;0.88;;
24455;SDS011;12628;50.860;5.714;2022-12-29T09:17:16;7.68;;;1.60;;
24455;SDS011;12628;50.860;5.714;2022-12-29T09:20:02;10.82;;;1.50;;
24455;SDS011;12628;50.860;5.714;2022-12-29T09:22:30;6.05;;;1.13;;
24455;SDS011;12628;50.860;5.714;2022-12-29T09:24:58;5.22;;;1.08;;
24455;SDS011;12628;50.860;5.714;2022-12-29T09:27:25;9.02;;;1.40;;
24455;SDS011;12628;50.860;5.714;2022-12-29T09:29:53;7.15;;;1.60;;
24455;SDS011;12628;50.860;5.714;2022-12-29T09:32:20;5.65;;;1.52;;
24455;SDS011;12628;50.860;5.714;2022-12-29T09:34:48;4.68;;;1.08;;
24455;SDS011;12628;50.860;5.714;2022-12-29T09:37:17;7.40;;;1.42;;
24455;SDS011;12628;50.860;5.714;2022-12-29T09:39:44;8.43;;;1.67;;
24455;SDS011;12628;50.860;5.714;2022-12-29T09:42:13;7.03;;;1.20;;
24455;SDS011;12628;50.860;5.714;2022-12-29T09:44:49;6.93;;;1.27;;
24455;SDS011;12628;50.860;5.714;2022-12-29T09:47:22;9.52;;;1.10;;
24455;SDS011;12628;50.860;5.714;2022-12-29T09:49:52;6.55;;;1.33;;
24455;SDS011;12628;50.860;5.714;2022-12-29T09:52:26;11.98;;;1.40;;
24455;SDS011;12628;50.860;5.714;2022-12-29T09:54:58;7.57;;;1.38;;
24455;SDS011;12628;50.860;5.714;2022-12-29T09:57:29;9.95;;;1.20;;
24455;SDS011;12628;50.860;5.714;2022-12-29T10:00:03;5.97;;;1.00;;
24455;SDS011;12628;50.860;5.714;2022-12-29T10:02:37;10.20;;;1.60;;
24455;SDS011;12628;50.860;5.714;2022-12-29T10:05:13;6.47;;;1.30;;
24455;SDS011;12628;50.860;5.714;2022-12-29T10:07:50;7.07;;;1.30;;
24455;SDS011;12628;50.860;5.714;2022-12-29T10:10:28;7.65;;;1.30;;
24455;SDS011;12628;50.860;5.714;2022-12-29T10:13:05;4.80;;;1.20;;
24455;SDS011;12628;50.860;5.714;2022-12-29T10:15:52;8.30;;;1.33;;
24455;SDS011;12628;50.860;5.714;2022-12-29T10:18:32;7.25;;;1.50;;
24455;SDS011;12628;50.860;5.714;2022-12-29T10:21:26;4.93;;;1.23;;
24455;SDS011;12628;50.860;5.714;2022-12-29T10:24:06;9.05;;;1.75;;
24455;SDS011;12628;50.860;5.714;2022-12-29T10:26:38;8.43;;;1.42;;
24455;SDS011;12628;50.860;5.714;2022-12-29T10:29:11;8.07;;;1.48;;
24455;SDS011;12628;50.860;5.714;2022-12-29T10:31:43;6.82;;;1.42;;
24455;SDS011;12628;50.860;5.714;2022-12-29T10:34:15;6.03;;;1.42;;
24455;SDS011;12628;50.860;5.714;2022-12-29T10:36:48;8.90;;;1.30;;
24455;SDS011;12628;50.860;5.714;2022-12-29T10:39:21;8.40;;;1.52;;
24455;SDS011;12628;50.860;5.714;2022-12-29T10:41:55;5.35;;;1.10;;
24455;SDS011;12628;50.860;5.714;2022-12-29T10:44:30;7.22;;;1.23;;
24455;SDS011;12628;50.860;5.714;2022-12-29T10:47:02;7.68;;;1.50;;
24455;SDS011;12628;50.860;5.714;2022-12-29T10:49:33;9.10;;;1.52;;
24455;SDS011;12628;50.860;5.714;2022-12-29T10:52:09;8.38;;;1.35;;
24455;SDS011;12628;50.860;5.714;2022-12-29T10:54:41;6.72;;;1.35;;
24455;SDS011;12628;50.860;5.714;2022-12-29T10:57:14;5.45;;;1.05;;
24455;SDS011;12628;50.860;5.714;2022-12-29T10:59:49;8.32;;;1.10;;
24455;SDS011;12628;50.860;5.714;2022-12-29T11:02:22;7.13;;;1.30;;
24455;SDS011;12628;50.860;5.714;2022-12-29T11:05:05;7.07;;;1.10;;
24455;SDS011;12628;50.860;5.714;2022-12-29T11:07:40;5.93;;;1.35;;
24455;SDS011;12628;50.860;5.714;2022-12-29T11:10:20;7.05;;;1.52;;
24455;SDS011;12628;50.860;5.714;2022-12-29T11:12:57;4.93;;;1.10;;
24455;SDS011;12628;50.860;5.714;2022-12-29T11:15:26;5.78;;;1.15;;
24455;SDS011;12628;50.860;5.714;2022-12-29T11:17:56;7.50;;;1.17;;
24455;SDS011;12628;50.860;5.714;2022-12-29T11:20:32;7.35;;;1.20;;
24455;SDS011;12628;50.860;5.714;2022-12-29T11:23:01;6.22;;;1.15;;
24455;SDS011;12628;50.860;5.714;2022-12-29T11:25:31;9.02;;;1.48;;
24455;SDS011;12628;50.860;5.714;2022-12-29T11:28:00;6.97;;;1.08;;
24455;SDS011;12628;50.860;5.714;2022-12-29T11:30:39;5.93;;;1.30;;
24455;SDS011;12628;50.860;5.714;2022-12-29T11:33:07;9.13;;;1.42;;
